Thuringia — D5EG7 — position and weather

sailwx.info

Track history (hours):
 
Tides and Currents Weather Stations Pressure Air Temp Water Temp Dewpoint Dewpoint Depression Visibility Wind Speed Wind Dir Waves Ship Positions

Thuringia

Last reported at 2017-Dec-09 02:17 UTC. Time now 2017-Dec-11 17:02 UTC.
Position N 08°43' W 015°36'.

Length 260 m; draft 10.9 m.

Type: Ship. MMSI: 636016073.

Date/timePositionNaut miles runAvg speedWind from/ knotsBaromVisibWave heightAir tempDewpointWater temp
2017-Dec-09 02:17N 08°43' W 015°36'4215.9
2017-Dec-08 23:39N 09°17' W 016°01'316.3
2017-Dec-08 23:29N 09°19' W 016°03'816.3
2017-Dec-08 22:59N 09°26' W 016°08'916.3
2017-Dec-08 22:26N 09°33' W 016°13'716.3
2017-Dec-08 21:59N 09°39' W 016°17'816.4
2017-Dec-08 21:29N 09°46' W 016°22'1018.0
2017-Dec-08 20:55N 09°54' W 016°28'614.6
2017-Dec-08 20:30N 09°58' W 016°32'2317.2
2017-Dec-08 19:11N 10°17' W 016°45'415.3
2017-Dec-08 18:56N 10°21' W 016°47'1016.9
2017-Dec-08 18:22N 10°29' W 016°52'  
Track history (hours):
 
Tides and Currents Weather Stations Pressure Air Temp Water Temp Dewpoint Dewpoint Depression Visibility Wind Speed Wind Dir Waves Ship Positions

Thuringia

Last reported at 2017-Dec-09 02:17 UTC. Time now 2017-Dec-11 17:02 UTC.
Position N 08°43' W 015°36'.

Length 260 m; draft 10.9 m.

Type: Ship. MMSI: 636016073.

Date/timePositionNaut miles runAvg speedWind from/ knotsBaromVisibWave heightAir tempDewpointWater temp
2017-Dec-09 02:17N 08°43' W 015°36'4215.9
2017-Dec-08 23:39N 09°17' W 016°01'316.3
2017-Dec-08 23:29N 09°19' W 016°03'816.3
2017-Dec-08 22:59N 09°26' W 016°08'916.3
2017-Dec-08 22:26N 09°33' W 016°13'716.3
2017-Dec-08 21:59N 09°39' W 016°17'816.4
2017-Dec-08 21:29N 09°46' W 016°22'1018.0
2017-Dec-08 20:55N 09°54' W 016°28'614.6
2017-Dec-08 20:30N 09°58' W 016°32'2317.2
2017-Dec-08 19:11N 10°17' W 016°45'415.3
2017-Dec-08 18:56N 10°21' W 016°47'1016.9
2017-Dec-08 18:22N 10°29' W 016°52'  

Dump ship's entire track history